sensor_id;sensor_type;location;lat;lon;timestamp;temperature;humidity
31733;DHT22;18312;51.486;7.144;2023-04-06T00:00:00;1.40;98.90
31733;DHT22;18312;51.486;7.144;2023-04-06T00:02:27;1.10;98.40
31733;DHT22;18312;51.486;7.144;2023-04-06T00:04:53;1.00;98.90
31733;DHT22;18312;51.486;7.144;2023-04-06T00:07:20;0.90;99.00
31733;DHT22;18312;51.486;7.144;2023-04-06T00:09:46;1.10;99.90
31733;DHT22;18312;51.486;7.144;2023-04-06T00:12:14;1.20;99.90
31733;DHT22;18312;51.486;7.144;2023-04-06T00:14:41;1.20;99.90
31733;DHT22;18312;51.486;7.144;2023-04-06T00:17:07;1.20;99.90
31733;DHT22;18312;51.486;7.144;2023-04-06T00:19:34;1.10;99.60
31733;DHT22;18312;51.486;7.144;2023-04-06T00:22:01;0.90;99.70
31733;DHT22;18312;51.486;7.144;2023-04-06T00:24:27;0.80;99.90
31733;DHT22;18312;51.486;7.144;2023-04-06T00:26:54;0.80;99.90
31733;DHT22;18312;51.486;7.144;2023-04-06T00:29:22;0.90;99.90
31733;DHT22;18312;51.486;7.144;2023-04-06T00:31:49;1.00;99.90
31733;DHT22;18312;51.486;7.144;2023-04-06T00:34:15;0.90;99.90
31733;DHT22;18312;51.486;7.144;2023-04-06T00:36:42;0.90;99.90
31733;DHT22;18312;51.486;7.144;2023-04-06T00:39:09;0.70;99.90
31733;DHT22;18312;51.486;7.144;2023-04-06T00:41:35;0.80;99.90
31733;DHT22;18312;51.486;7.144;2023-04-06T00:44:02;0.70;99.90
31733;DHT22;18312;51.486;7.144;2023-04-06T00:46:30;0.70;99.90
31733;DHT22;18312;51.486;7.144;2023-04-06T00:48:57;0.70;99.90
31733;DHT22;18312;51.486;7.144;2023-04-06T00:51:23;0.60;99.90
31733;DHT22;18312;51.486;7.144;2023-04-06T00:53:50;0.50;99.90
31733;DHT22;18312;51.486;7.144;2023-04-06T00:56:17;0.40;99.90
31733;DHT22;18312;51.486;7.144;2023-04-06T00:58:43;0.60;99.90
31733;DHT22;18312;51.486;7.144;2023-04-06T01:01:10;0.60;99.90
31733;DHT22;18312;51.486;7.144;2023-04-06T01:03:38;0.40;99.90
31733;DHT22;18312;51.486;7.144;2023-04-06T01:06:04;0.20;99.90
31733;DHT22;18312;51.486;7.144;2023-04-06T01:08:31;0.30;99.90
31733;DHT22;18312;51.486;7.144;2023-04-06T01:10:58;0.30;99.90
31733;DHT22;18312;51.486;7.144;2023-04-06T01:13:26;0.30;99.90
31733;DHT22;18312;51.486;7.144;2023-04-06T01:15:52;0.40;99.90
31733;DHT22;18312;51.486;7.144;2023-04-06T01:18:19;0.40;99.90
31733;DHT22;18312;51.486;7.144;2023-04-06T01:20:52;0.40;99.90
31733;DHT22;18312;51.486;7.144;2023-04-06T01:23:20;0.40;99.90
31733;DHT22;18312;51.486;7.144;2023-04-06T01:25:47;0.30;99.90
31733;DHT22;18312;51.486;7.144;2023-04-06T01:28:13;0.30;99.90
31733;DHT22;18312;51.486;7.144;2023-04-06T01:30:40;0.30;99.90
31733;DHT22;18312;51.486;7.144;2023-04-06T01:33:07;0.20;99.90
31733;DHT22;18312;51.486;7.144;2023-04-06T01:35:33;0.00;99.90
31733;DHT22;18312;51.486;7.144;2023-04-06T01:38:00;0.00;99.90
31733;DHT22;18312;51.486;7.144;2023-04-06T01:40:28;0.10;99.90
31733;DHT22;18312;51.486;7.144;2023-04-06T01:42:54;0.20;99.90
31733;DHT22;18312;51.486;7.144;2023-04-06T01:45:21;0.30;99.90
31733;DHT22;18312;51.486;7.144;2023-04-06T01:47:47;0.20;99.90
31733;DHT22;18312;51.486;7.144;2023-04-06T01:50:14;0.10;99.90
31733;DHT22;18312;51.486;7.144;2023-04-06T01:52:41;0.10;99.90
31733;DHT22;18312;51.486;7.144;2023-04-06T01:55:07;0.20;99.90
31733;DHT22;18312;51.486;7.144;2023-04-06T01:57:36;0.30;99.90
31733;DHT22;18312;51.486;7.144;2023-04-06T02:00:02;0.30;99.90
31733;DHT22;18312;51.486;7.144;2023-04-06T02:02:31;0.10;99.90
31733;DHT22;18312;51.486;7.144;2023-04-06T02:04:58;0.10;99.90
31733;DHT22;18312;51.486;7.144;2023-04-06T02:07:24;0.00;99.90
31733;DHT22;18312;51.486;7.144;2023-04-06T02:09:53;0.10;99.90
31733;DHT22;18312;51.486;7.144;2023-04-06T02:12:20;0.00;99.90
31733;DHT22;18312;51.486;7.144;2023-04-06T02:14:48;0.10;99.90
31733;DHT22;18312;51.486;7.144;2023-04-06T02:17:14;0.00;99.90
31733;DHT22;18312;51.486;7.144;2023-04-06T02:19:41;-0.10;99.90
31733;DHT22;18312;51.486;7.144;2023-04-06T02:22:08;0.00;99.90
31733;DHT22;18312;51.486;7.144;2023-04-06T02:24:35;-0.10;99.90
31733;DHT22;18312;51.486;7.144;2023-04-06T02:27:01;0.00;99.90
31733;DHT22;18312;51.486;7.144;2023-04-06T02:29:28;0.10;99.90
31733;DHT22;18312;51.486;7.144;2023-04-06T02:31:56;0.20;99.90
31733;DHT22;18312;51.486;7.144;2023-04-06T02:34:22;0.20;99.90
31733;DHT22;18312;51.486;7.144;2023-04-06T02:36:49;0.30;99.90
31733;DHT22;18312;51.486;7.144;2023-04-06T02:39:16;0.60;99.90
31733;DHT22;18312;51.486;7.144;2023-04-06T02:41:43;0.60;99.90
31733;DHT22;18312;51.486;7.144;2023-04-06T02:44:09;0.70;99.90
31733;DHT22;18312;51.486;7.144;2023-04-06T02:46:36;0.70;99.90
31733;DHT22;18312;51.486;7.144;2023-04-06T02:49:04;0.70;99.90
31733;DHT22;18312;51.486;7.144;2023-04-06T02:51:30;0.70;99.90
31733;DHT22;18312;51.486;7.144;2023-04-06T02:53:58;0.70;99.90
31733;DHT22;18312;51.486;7.144;2023-04-06T02:56:24;0.60;99.90
31733;DHT22;18312;51.486;7.144;2023-04-06T02:58:51;0.50;99.90
31733;DHT22;18312;51.486;7.144;2023-04-06T03:01:18;0.40;99.90
31733;DHT22;18312;51.486;7.144;2023-04-06T03:03:44;0.30;99.90
31733;DHT22;18312;51.486;7.144;2023-04-06T03:06:12;0.20;99.90
31733;DHT22;18312;51.486;7.144;2023-04-06T03:08:39;0.30;99.90
31733;DHT22;18312;51.486;7.144;2023-04-06T03:11:06;0.30;99.90
31733;DHT22;18312;51.486;7.144;2023-04-06T03:13:32;0.20;99.90
31733;DHT22;18312;51.486;7.144;2023-04-06T03:15:59;0.10;99.90
31733;DHT22;18312;51.486;7.144;2023-04-06T03:18:25;0.10;99.90
31733;DHT22;18312;51.486;7.144;2023-04-06T03:20:52;0.10;99.90
31733;DHT22;18312;51.486;7.144;2023-04-06T03:23:21;0.10;99.90
31733;DHT22;18312;51.486;7.144;2023-04-06T03:25:48;-0.10;99.90
31733;DHT22;18312;51.486;7.144;2023-04-06T03:28:14;-0.20;99.90
31733;DHT22;18312;51.486;7.144;2023-04-06T03:30:41;-0.30;99.90
31733;DHT22;18312;51.486;7.144;2023-04-06T03:33:08;-0.20;99.90
31733;DHT22;18312;51.486;7.144;2023-04-06T03:35:34;-0.10;99.90
31733;DHT22;18312;51.486;7.144;2023-04-06T03:38:02;0.00;99.90
31733;DHT22;18312;51.486;7.144;2023-04-06T03:40:30;0.10;99.90
31733;DHT22;18312;51.486;7.144;2023-04-06T03:42:56;0.10;99.90
31733;DHT22;18312;51.486;7.144;2023-04-06T03:45:23;0.20;99.90
31733;DHT22;18312;51.486;7.144;2023-04-06T03:47:49;0.10;99.90
31733;DHT22;18312;51.486;7.144;2023-04-06T03:50:16;0.10;99.90
31733;DHT22;18312;51.486;7.144;2023-04-06T03:52:42;0.00;99.90
31733;DHT22;18312;51.486;7.144;2023-04-06T03:55:09;-0.10;99.90
31733;DHT22;18312;51.486;7.144;2023-04-06T03:57:37;-0.20;99.90
31733;DHT22;18312;51.486;7.144;2023-04-06T04:00:04;-0.10;99.90
31733;DHT22;18312;51.486;7.144;2023-04-06T04:02:31;-0.20;99.90
31733;DHT22;18312;51.486;7.144;2023-04-06T04:04:57;-0.20;99.90
31733;DHT22;18312;51.486;7.144;2023-04-06T04:07:24;-0.30;99.90
31733;DHT22;18312;51.486;7.144;2023-04-06T04:09:50;-0.50;99.90
31733;DHT22;18312;51.486;7.144;2023-04-06T04:12:17;-0.40;99.90
31733;DHT22;18312;51.486;7.144;2023-04-06T04:14:44;-0.40;99.90
31733;DHT22;18312;51.486;7.144;2023-04-06T04:17:11;-0.40;99.90
31733;DHT22;18312;51.486;7.144;2023-04-06T04:19:37;-0.40;99.90
31733;DHT22;18312;51.486;7.144;2023-04-06T04:22:04;-0.40;99.90
31733;DHT22;18312;51.486;7.144;2023-04-06T04:24:31;-0.40;99.90
31733;DHT22;18312;51.486;7.144;2023-04-06T04:26:59;-0.40;99.90
31733;DHT22;18312;51.486;7.144;2023-04-06T04:29:26;-0.40;99.90
31733;DHT22;18312;51.486;7.144;2023-04-06T04:31:53;-0.30;99.90
31733;DHT22;18312;51.486;7.144;2023-04-06T04:34:20;-0.30;99.90
31733;DHT22;18312;51.486;7.144;2023-04-06T04:36:49;-0.30;99.90
31733;DHT22;18312;51.486;7.144;2023-04-06T04:39:15;-0.30;99.90
31733;DHT22;18312;51.486;7.144;2023-04-06T04:41:42;-0.40;99.90
31733;DHT22;18312;51.486;7.144;2023-04-06T04:44:08;-0.50;99.90
31733;DHT22;18312;51.486;7.144;2023-04-06T04:46:35;-0.50;99.90
31733;DHT22;18312;51.486;7.144;2023-04-06T04:49:03;-0.50;99.90
31733;DHT22;18312;51.486;7.144;2023-04-06T04:51:29;-0.50;99.90
31733;DHT22;18312;51.486;7.144;2023-04-06T04:53:57;-0.40;99.90
31733;DHT22;18312;51.486;7.144;2023-04-06T04:56:24;-0.40;99.90
31733;DHT22;18312;51.486;7.144;2023-04-06T04:58:52;-0.30;99.90
31733;DHT22;18312;51.486;7.144;2023-04-06T05:01:19;-0.40;99.90
31733;DHT22;18312;51.486;7.144;2023-04-06T05:03:46;-0.40;99.90
31733;DHT22;18312;51.486;7.144;2023-04-06T05:06:13;-0.30;99.90
31733;DHT22;18312;51.486;7.144;2023-04-06T05:08:40;-0.30;99.90
31733;DHT22;18312;51.486;7.144;2023-04-06T05:11:06;-0.10;99.90
31733;DHT22;18312;51.486;7.144;2023-04-06T05:13:33;-0.10;99.90
31733;DHT22;18312;51.486;7.144;2023-04-06T05:16:00;-0.10;99.90
31733;DHT22;18312;51.486;7.144;2023-04-06T05:18:26;0.10;99.90
31733;DHT22;18312;51.486;7.144;2023-04-06T05:20:53;0.30;99.90
31733;DHT22;18312;51.486;7.144;2023-04-06T05:23:21;0.40;99.90
31733;DHT22;18312;51.486;7.144;2023-04-06T05:25:48;0.40;99.90
31733;DHT22;18312;51.486;7.144;2023-04-06T05:28:15;0.20;99.90
31733;DHT22;18312;51.486;7.144;2023-04-06T05:30:41;0.10;99.90
31733;DHT22;18312;51.486;7.144;2023-04-06T05:33:08;0.20;99.90
31733;DHT22;18312;51.486;7.144;2023-04-06T05:35:35;0.30;99.90
31733;DHT22;18312;51.486;7.144;2023-04-06T05:38:02;0.40;99.90
31733;DHT22;18312;51.486;7.144;2023-04-06T05:40:29;0.50;99.90
31733;DHT22;18312;51.486;7.144;2023-04-06T05:42:56;0.60;99.90
31733;DHT22;18312;51.486;7.144;2023-04-06T05:45:23;0.70;99.90
31733;DHT22;18312;51.486;7.144;2023-04-06T05:47:49;0.80;99.90
31733;DHT22;18312;51.486;7.144;2023-04-06T05:50:16;0.90;99.90
31733;DHT22;18312;51.486;7.144;2023-04-06T05:52:42;1.00;99.90
31733;DHT22;18312;51.486;7.144;2023-04-06T05:55:11;1.20;99.90
31733;DHT22;18312;51.486;7.144;2023-04-06T05:57:39;1.50;99.90
31733;DHT22;18312;51.486;7.144;2023-04-06T06:00:06;1.60;99.90
31733;DHT22;18312;51.486;7.144;2023-04-06T06:02:35;1.80;99.90
31733;DHT22;18312;51.486;7.144;2023-04-06T06:05:01;2.00;99.90
31733;DHT22;18312;51.486;7.144;2023-04-06T06:07:28;2.30;99.90
31733;DHT22;18312;51.486;7.144;2023-04-06T06:09:56;2.60;98.60
31733;DHT22;18312;51.486;7.144;2023-04-06T06:12:22;2.80;98.00
31733;DHT22;18312;51.486;7.144;2023-04-06T06:14:50;3.00;97.30
31733;DHT22;18312;51.486;7.144;2023-04-06T06:17:16;3.20;96.40
31733;DHT22;18312;51.486;7.144;2023-04-06T06:19:43;3.50;95.50
31733;DHT22;18312;51.486;7.144;2023-04-06T06:22:10;3.70;94.70
31733;DHT22;18312;51.486;7.144;2023-04-06T06:24:37;3.80;94.40
31733;DHT22;18312;51.486;7.144;2023-04-06T06:27:04;3.90;93.90
31733;DHT22;18312;51.486;7.144;2023-04-06T06:29:30;4.50;93.20
31733;DHT22;18312;51.486;7.144;2023-04-06T06:31:58;5.30;90.60
31733;DHT22;18312;51.486;7.144;2023-04-06T06:34:25;5.60;89.80
31733;DHT22;18312;51.486;7.144;2023-04-06T06:36:51;7.00;84.60
31733;DHT22;18312;51.486;7.144;2023-04-06T06:39:20;9.00;73.50
31733;DHT22;18312;51.486;7.144;2023-04-06T06:41:47;10.60;64.90
31733;DHT22;18312;51.486;7.144;2023-04-06T06:44:13;11.50;60.40
31733;DHT22;18312;51.486;7.144;2023-04-06T06:46:40;12.00;58.30
31733;DHT22;18312;51.486;7.144;2023-04-06T06:49:08;11.60;56.80
31733;DHT22;18312;51.486;7.144;2023-04-06T06:51:36;11.20;57.10
31733;DHT22;18312;51.486;7.144;2023-04-06T06:54:03;11.00;56.30
31733;DHT22;18312;51.486;7.144;2023-04-06T06:56:29;11.20;56.00
31733;DHT22;18312;51.486;7.144;2023-04-06T06:58:56;11.60;55.10
31733;DHT22;18312;51.486;7.144;2023-04-06T07:01:22;12.00;54.10
31733;DHT22;18312;51.486;7.144;2023-04-06T07:03:49;10.80;56.70
31733;DHT22;18312;51.486;7.144;2023-04-06T07:06:17;10.40;58.00
31733;DHT22;18312;51.486;7.144;2023-04-06T07:08:43;10.70;56.40
31733;DHT22;18312;51.486;7.144;2023-04-06T07:11:10;11.30;55.80
31733;DHT22;18312;51.486;7.144;2023-04-06T07:13:37;11.30;55.40
31733;DHT22;18312;51.486;7.144;2023-04-06T07:16:03;10.80;55.50
31733;DHT22;18312;51.486;7.144;2023-04-06T07:18:30;10.90;56.10
31733;DHT22;18312;51.486;7.144;2023-04-06T07:20:56;11.10;55.30
31733;DHT22;18312;51.486;7.144;2023-04-06T07:23:24;11.00;55.70
31733;DHT22;18312;51.486;7.144;2023-04-06T07:25:51;11.40;55.50
31733;DHT22;18312;51.486;7.144;2023-04-06T07:28:19;12.00;53.90
31733;DHT22;18312;51.486;7.144;2023-04-06T07:30:45;11.90;53.60
31733;DHT22;18312;51.486;7.144;2023-04-06T07:33:12;11.40;54.80
31733;DHT22;18312;51.486;7.144;2023-04-06T07:35:38;10.40;56.40
31733;DHT22;18312;51.486;7.144;2023-04-06T07:38:05;10.90;56.50
31733;DHT22;18312;51.486;7.144;2023-04-06T07:40:33;11.00;55.40
31733;DHT22;18312;51.486;7.144;2023-04-06T07:42:59;10.40;57.30
31733;DHT22;18312;51.486;7.144;2023-04-06T07:45:27;10.20;58.00
31733;DHT22;18312;51.486;7.144;2023-04-06T07:47:53;11.70;55.60
31733;DHT22;18312;51.486;7.144;2023-04-06T07:50:20;12.60;53.00
31733;DHT22;18312;51.486;7.144;2023-04-06T07:52:47;12.20;53.60
31733;DHT22;18312;51.486;7.144;2023-04-06T07:55:14;11.80;55.70
31733;DHT22;18312;51.486;7.144;2023-04-06T07:57:41;14.20;52.10
31733;DHT22;18312;51.486;7.144;2023-04-06T08:00:08;15.90;47.80
31733;DHT22;18312;51.486;7.144;2023-04-06T08:02:35;16.70;45.90
31733;DHT22;18312;51.486;7.144;2023-04-06T08:05:02;15.30;46.90
31733;DHT22;18312;51.486;7.144;2023-04-06T08:07:28;14.80;48.10
31733;DHT22;18312;51.486;7.144;2023-04-06T08:09:55;15.20;46.10
31733;DHT22;18312;51.486;7.144;2023-04-06T08:12:21;14.00;49.30
31733;DHT22;18312;51.486;7.144;2023-04-06T08:14:49;13.00;52.10
31733;DHT22;18312;51.486;7.144;2023-04-06T08:17:16;13.40;51.00
31733;DHT22;18312;51.486;7.144;2023-04-06T08:19:42;14.30;47.20
31733;DHT22;18312;51.486;7.144;2023-04-06T08:22:10;13.90;49.30
31733;DHT22;18312;51.486;7.144;2023-04-06T08:24:37;14.20;48.80
31733;DHT22;18312;51.486;7.144;2023-04-06T08:27:03;13.90;50.00
31733;DHT22;18312;51.486;7.144;2023-04-06T08:29:30;14.90;48.20
31733;DHT22;18312;51.486;7.144;2023-04-06T08:31:57;15.30;46.90
31733;DHT22;18312;51.486;7.144;2023-04-06T08:34:24;14.90;47.00
31733;DHT22;18312;51.486;7.144;2023-04-06T08:36:51;14.40;47.90
31733;DHT22;18312;51.486;7.144;2023-04-06T08:39:17;14.00;48.00
31733;DHT22;18312;51.486;7.144;2023-04-06T08:41:49;13.50;48.20
31733;DHT22;18312;51.486;7.144;2023-04-06T08:44:17;13.30;49.90
31733;DHT22;18312;51.486;7.144;2023-04-06T08:46:43;13.40;49.80
31733;DHT22;18312;51.486;7.144;2023-04-06T08:49:11;13.50;49.70
31733;DHT22;18312;51.486;7.144;2023-04-06T08:51:38;13.30;49.30
31733;DHT22;18312;51.486;7.144;2023-04-06T08:54:05;13.20;50.10
31733;DHT22;18312;51.486;7.144;2023-04-06T08:56:32;13.40;50.60
31733;DHT22;18312;51.486;7.144;2023-04-06T08:58:58;13.80;50.10
31733;DHT22;18312;51.486;7.144;2023-04-06T09:01:25;13.50;49.70
31733;DHT22;18312;51.486;7.144;2023-04-06T09:03:53;13.90;48.70
31733;DHT22;18312;51.486;7.144;2023-04-06T09:06:23;14.40;48.80
31733;DHT22;18312;51.486;7.144;2023-04-06T09:08:51;14.50;48.90
31733;DHT22;18312;51.486;7.144;2023-04-06T09:11:18;14.70;46.90
31733;DHT22;18312;51.486;7.144;2023-04-06T09:13:45;14.60;47.70
31733;DHT22;18312;51.486;7.144;2023-04-06T09:16:12;14.40;48.20
31733;DHT22;18312;51.486;7.144;2023-04-06T09:18:39;14.20;49.10
31733;DHT22;18312;51.486;7.144;2023-04-06T09:21:06;14.00;48.40
31733;DHT22;18312;51.486;7.144;2023-04-06T09:23:34;14.30;47.90
31733;DHT22;18312;51.486;7.144;2023-04-06T09:26:04;15.00;47.40
31733;DHT22;18312;51.486;7.144;2023-04-06T09:28:40;15.30;46.70
31733;DHT22;18312;51.486;7.144;2023-04-06T09:31:06;15.60;45.50
31733;DHT22;18312;51.486;7.144;2023-04-06T09:33:36;16.10;45.80
31733;DHT22;18312;51.486;7.144;2023-04-06T09:36:03;16.80;44.50
31733;DHT22;18312;51.486;7.144;2023-04-06T09:38:30;18.10;43.00
31733;DHT22;18312;51.486;7.144;2023-04-06T09:40:58;18.50;41.30
31733;DHT22;18312;51.486;7.144;2023-04-06T09:43:24;18.40;40.60
31733;DHT22;18312;51.486;7.144;2023-04-06T09:45:51;18.30;41.50
31733;DHT22;18312;51.486;7.144;2023-04-06T09:48:18;19.80;39.00
31733;DHT22;18312;51.486;7.144;2023-04-06T09:50:46;19.60;38.20
31733;DHT22;18312;51.486;7.144;2023-04-06T09:53:12;19.90;39.00
31733;DHT22;18312;51.486;7.144;2023-04-06T09:55:40;20.90;37.80
31733;DHT22;18312;51.486;7.144;2023-04-06T09:58:10;21.60;37.20
31733;DHT22;18312;51.486;7.144;2023-04-06T10:00:40;20.90;37.30
31733;DHT22;18312;51.486;7.144;2023-04-06T10:03:10;19.20;38.40
31733;DHT22;18312;51.486;7.144;2023-04-06T10:05:42;18.60;39.50
31733;DHT22;18312;51.486;7.144;2023-04-06T10:08:10;17.30;40.40
31733;DHT22;18312;51.486;7.144;2023-04-06T10:10:37;16.90;42.30
31733;DHT22;18312;51.486;7.144;2023-04-06T10:13:03;17.00;43.50
31733;DHT22;18312;51.486;7.144;2023-04-06T10:15:33;16.70;42.30
31733;DHT22;18312;51.486;7.144;2023-04-06T10:17:59;16.90;42.10
31733;DHT22;18312;51.486;7.144;2023-04-06T10:20:27;16.30;42.20
31733;DHT22;18312;51.486;7.144;2023-04-06T10:22:55;16.10;42.70
31733;DHT22;18312;51.486;7.144;2023-04-06T10:25:28;16.00;42.30
31733;DHT22;18312;51.486;7.144;2023-04-06T10:27:59;15.80;42.60
31733;DHT22;18312;51.486;7.144;2023-04-06T10:30:25;15.80;43.80
31733;DHT22;18312;51.486;7.144;2023-04-06T10:32:54;15.80;42.30
31733;DHT22;18312;51.486;7.144;2023-04-06T10:35:20;15.80;43.90
31733;DHT22;18312;51.486;7.144;2023-04-06T10:37:49;15.70;43.00
31733;DHT22;18312;51.486;7.144;2023-04-06T10:40:19;15.60;43.60
31733;DHT22;18312;51.486;7.144;2023-04-06T10:42:46;15.60;43.40
31733;DHT22;18312;51.486;7.144;2023-04-06T10:45:19;15.80;43.70
31733;DHT22;18312;51.486;7.144;2023-04-06T10:47:45;15.80;43.30
31733;DHT22;18312;51.486;7.144;2023-04-06T10:50:14;15.80;43.60
31733;DHT22;18312;51.486;7.144;2023-04-06T10:52:41;16.10;44.20
31733;DHT22;18312;51.486;7.144;2023-04-06T10:55:08;16.40;43.00
31733;DHT22;18312;51.486;7.144;2023-04-06T10:57:35;16.50;44.00
31733;DHT22;18312;51.486;7.144;2023-04-06T11:00:03;16.30;45.50
31733;DHT22;18312;51.486;7.144;2023-04-06T11:02:29;16.30;43.20
31733;DHT22;18312;51.486;7.144;2023-04-06T11:04:57;16.30;45.30
31733;DHT22;18312;51.486;7.144;2023-04-06T11:07:25;16.50;43.80
31733;DHT22;18312;51.486;7.144;2023-04-06T11:09:54;16.40;43.20
31733;DHT22;18312;51.486;7.144;2023-04-06T11:12:21;16.40;46.30
31733;DHT22;18312;51.486;7.144;2023-04-06T11:14:52;16.70;44.40
31733;DHT22;18312;51.486;7.144;2023-04-06T11:17:25;16.70;43.40
31733;DHT22;18312;51.486;7.144;2023-04-06T11:19:51;17.00;43.10
31733;DHT22;18312;51.486;7.144;2023-04-06T11:22:18;17.20;43.30
31733;DHT22;18312;51.486;7.144;2023-04-06T11:24:46;17.20;44.70
31733;DHT22;18312;51.486;7.144;2023-04-06T11:27:14;17.20;44.50
31733;DHT22;18312;51.486;7.144;2023-04-06T11:29:41;17.20;44.90
31733;DHT22;18312;51.486;7.144;2023-04-06T11:32:08;17.10;43.90
31733;DHT22;18312;51.486;7.144;2023-04-06T11:34:35;17.00;44.50
31733;DHT22;18312;51.486;7.144;2023-04-06T11:37:02;16.40;44.00
31733;DHT22;18312;51.486;7.144;2023-04-06T11:39:31;16.30;44.80
31733;DHT22;18312;51.486;7.144;2023-04-06T11:41:59;16.60;44.10
31733;DHT22;18312;51.486;7.144;2023-04-06T11:44:28;16.50;45.00
31733;DHT22;18312;51.486;7.144;2023-04-06T11:46:56;16.70;45.50
31733;DHT22;18312;51.486;7.144;2023-04-06T11:49:26;16.60;44.60
31733;DHT22;18312;51.486;7.144;2023-04-06T11:51:52;16.80;44.80
31733;DHT22;18312;51.486;7.144;2023-04-06T11:54:28;17.00;45.10
31733;DHT22;18312;51.486;7.144;2023-04-06T11:56:55;16.80;44.80
31733;DHT22;18312;51.486;7.144;2023-04-06T11:59:24;16.90;44.70
31733;DHT22;18312;51.486;7.144;2023-04-06T12:01:52;16.70;43.90
31733;DHT22;18312;51.486;7.144;2023-04-06T12:04:19;16.90;43.80
31733;DHT22;18312;51.486;7.144;2023-04-06T12:06:46;16.70;44.30
31733;DHT22;18312;51.486;7.144;2023-04-06T12:09:12;17.10;45.60
31733;DHT22;18312;51.486;7.144;2023-04-06T12:11:39;17.10;45.40
31733;DHT22;18312;51.486;7.144;2023-04-06T12:14:06;16.70;44.50
31733;DHT22;18312;51.486;7.144;2023-04-06T12:16:34;16.40;45.00
31733;DHT22;18312;51.486;7.144;2023-04-06T12:19:00;16.50;45.40
31733;DHT22;18312;51.486;7.144;2023-04-06T12:21:27;16.50;44.50
31733;DHT22;18312;51.486;7.144;2023-04-06T12:23:54;16.70;45.30
31733;DHT22;18312;51.486;7.144;2023-04-06T12:26:21;16.90;45.10
31733;DHT22;18312;51.486;7.144;2023-04-06T12:28:48;16.70;43.70
31733;DHT22;18312;51.486;7.144;2023-04-06T12:31:15;17.00;44.60
31733;DHT22;18312;51.486;7.144;2023-04-06T12:33:43;16.70;44.10
31733;DHT22;18312;51.486;7.144;2023-04-06T12:36:11;16.80;45.40
31733;DHT22;18312;51.486;7.144;2023-04-06T12:38:38;16.60;45.10
31733;DHT22;18312;51.486;7.144;2023-04-06T12:41:05;16.60;46.60
31733;DHT22;18312;51.486;7.144;2023-04-06T12:43:31;16.50;46.00
31733;DHT22;18312;51.486;7.144;2023-04-06T12:45:58;16.40;47.70
31733;DHT22;18312;51.486;7.144;2023-04-06T12:48:24;16.20;45.80
31733;DHT22;18312;51.486;7.144;2023-04-06T12:50:57;16.30;47.00
31733;DHT22;18312;51.486;7.144;2023-04-06T12:53:24;16.40;48.30
31733;DHT22;18312;51.486;7.144;2023-04-06T12:55:50;15.80;47.90
31733;DHT22;18312;51.486;7.144;2023-04-06T12:58:17;15.60;47.60
31733;DHT22;18312;51.486;7.144;2023-04-06T13:00:43;15.40;49.30
31733;DHT22;18312;51.486;7.144;2023-04-06T13:03:10;15.70;48.80
31733;DHT22;18312;51.486;7.144;2023-04-06T13:05:38;15.90;50.30
31733;DHT22;18312;51.486;7.144;2023-04-06T13:08:10;15.80;48.90
31733;DHT22;18312;51.486;7.144;2023-04-06T13:10:37;15.50;49.60
31733;DHT22;18312;51.486;7.144;2023-04-06T13:13:04;15.60;50.90
31733;DHT22;18312;51.486;7.144;2023-04-06T13:15:31;15.50;50.40
31733;DHT22;18312;51.486;7.144;2023-04-06T13:17:58;15.40;50.40
31733;DHT22;18312;51.486;7.144;2023-04-06T13:20:24;15.50;51.00
31733;DHT22;18312;51.486;7.144;2023-04-06T13:22:51;15.70;50.50
31733;DHT22;18312;51.486;7.144;2023-04-06T13:25:19;15.80;51.70
31733;DHT22;18312;51.486;7.144;2023-04-06T13:27:45;15.60;50.90
31733;DHT22;18312;51.486;7.144;2023-04-06T13:30:13;15.40;50.60
31733;DHT22;18312;51.486;7.144;2023-04-06T13:32:40;14.90;50.80
31733;DHT22;18312;51.486;7.144;2023-04-06T13:35:07;15.10;51.60
31733;DHT22;18312;51.486;7.144;2023-04-06T13:37:34;15.20;51.90
31733;DHT22;18312;51.486;7.144;2023-04-06T13:40:01;15.10;51.90
31733;DHT22;18312;51.486;7.144;2023-04-06T13:42:29;15.40;51.50
31733;DHT22;18312;51.486;7.144;2023-04-06T13:44:56;15.30;51.60
31733;DHT22;18312;51.486;7.144;2023-04-06T13:47:23;15.20;52.20
31733;DHT22;18312;51.486;7.144;2023-04-06T13:49:50;15.10;51.90
31733;DHT22;18312;51.486;7.144;2023-04-06T13:52:18;14.90;52.40
31733;DHT22;18312;51.486;7.144;2023-04-06T13:54:44;14.60;52.80
31733;DHT22;18312;51.486;7.144;2023-04-06T13:57:11;14.50;53.20
31733;DHT22;18312;51.486;7.144;2023-04-06T13:59:39;14.60;53.60
31733;DHT22;18312;51.486;7.144;2023-04-06T14:02:06;14.70;53.10
31733;DHT22;18312;51.486;7.144;2023-04-06T14:04:33;14.90;54.30
31733;DHT22;18312;51.486;7.144;2023-04-06T14:07:00;14.70;54.10
31733;DHT22;18312;51.486;7.144;2023-04-06T14:09:27;14.60;54.20
31733;DHT22;18312;51.486;7.144;2023-04-06T14:11:54;14.70;54.30
31733;DHT22;18312;51.486;7.144;2023-04-06T14:14:21;14.40;54.10
31733;DHT22;18312;51.486;7.144;2023-04-06T14:16:49;14.40;55.60
31733;DHT22;18312;51.486;7.144;2023-04-06T14:19:16;14.20;54.90
31733;DHT22;18312;51.486;7.144;2023-04-06T14:21:44;14.10;56.70
31733;DHT22;18312;51.486;7.144;2023-04-06T14:24:10;13.90;58.50
31733;DHT22;18312;51.486;7.144;2023-04-06T14:26:38;13.90;59.60
31733;DHT22;18312;51.486;7.144;2023-04-06T14:29:06;13.60;60.50
31733;DHT22;18312;51.486;7.144;2023-04-06T14:31:33;13.70;61.80
31733;DHT22;18312;51.486;7.144;2023-04-06T14:34:02;13.60;61.30
31733;DHT22;18312;51.486;7.144;2023-04-06T14:36:28;13.50;63.50
31733;DHT22;18312;51.486;7.144;2023-04-06T14:38:57;13.40;64.60
31733;DHT22;18312;51.486;7.144;2023-04-06T14:41:23;13.50;64.30
31733;DHT22;18312;51.486;7.144;2023-04-06T14:43:51;13.60;63.50
31733;DHT22;18312;51.486;7.144;2023-04-06T14:46:18;13.50;63.60
31733;DHT22;18312;51.486;7.144;2023-04-06T14:48:45;13.30;66.00
31733;DHT22;18312;51.486;7.144;2023-04-06T14:51:13;13.30;63.00
31733;DHT22;18312;51.486;7.144;2023-04-06T14:53:40;13.30;66.10
31733;DHT22;18312;51.486;7.144;2023-04-06T14:56:07;13.30;64.00
31733;DHT22;18312;51.486;7.144;2023-04-06T14:58:33;13.40;64.80
31733;DHT22;18312;51.486;7.144;2023-04-06T15:01:00;13.00;65.10
31733;DHT22;18312;51.486;7.144;2023-04-06T15:03:27;12.80;65.20
31733;DHT22;18312;51.486;7.144;2023-04-06T15:05:54;12.60;66.00
31733;DHT22;18312;51.486;7.144;2023-04-06T15:08:23;12.70;66.90
31733;DHT22;18312;51.486;7.144;2023-04-06T15:10:50;12.80;67.50
31733;DHT22;18312;51.486;7.144;2023-04-06T15:13:16;12.90;67.50
31733;DHT22;18312;51.486;7.144;2023-04-06T15:15:43;12.60;67.50
31733;DHT22;18312;51.486;7.144;2023-04-06T15:18:10;12.70;68.50
31733;DHT22;18312;51.486;7.144;2023-04-06T15:20:37;12.50;68.70
31733;DHT22;18312;51.486;7.144;2023-04-06T15:23:03;12.60;70.20
31733;DHT22;18312;51.486;7.144;2023-04-06T15:25:31;12.50;69.70
31733;DHT22;18312;51.486;7.144;2023-04-06T15:28:00;12.50;70.60
31733;DHT22;18312;51.486;7.144;2023-04-06T15:30:26;12.40;71.00
31733;DHT22;18312;51.486;7.144;2023-04-06T15:32:54;12.20;71.90